Time;durP1;ratioP1;P1;durP2;ratioP2;P2;SDS_P1;SDS_P2;PMS_P1;PMS_P2;Temp;Humidity;BMP_temperature;BMP_pressure;BME280_temperature;BME280_humidity;BME280_pressure;Samples;Min_cycle;Max_cycle;Signal;HPM_P1;HPM_P2
2022/05/18 00:00:58;;;;;;;11.48;10.27;;;23.10;90.10;;;;;;6259283;27;88540;-65
2022/05/18 00:04:00;;;;;;;10.63;9.63;;;23.10;90.10;;;;;;6258565;27;87787;-65
2022/05/18 00:07:02;;;;;;;11.00;10.00;;;23.10;90.20;;;;;;6258143;27;88082;-66
2022/05/18 00:10:06;;;;;;;10.68;9.68;;;23.10;90.20;;;;;;6257515;27;89886;-66
2022/05/18 00:13:10;;;;;;;10.13;9.23;;;23.10;90.10;;;;;;6259052;27;88005;-65
2022/05/18 00:16:13;;;;;;;10.73;9.73;;;23.10;90.00;;;;;;6259162;27;89546;-65
2022/05/18 00:19:14;;;;;;;10.32;9.32;;;23.10;90.00;;;;;;6259193;27;89043;-65
2022/05/18 00:22:16;;;;;;;10.45;9.48;;;23.10;90.00;;;;;;6259527;27;89133;-66
2022/05/18 00:25:21;;;;;;;10.68;9.68;;;23.10;90.00;;;;;;6234405;27;89122;-66
2022/05/18 00:28:25;;;;;;;9.65;8.75;;;23.10;90.00;;;;;;6257973;27;88353;-64
2022/05/18 00:31:27;;;;;;;11.40;10.40;;;23.10;89.90;;;;;;6259338;27;88363;-66
2022/05/18 00:34:29;;;;;;;10.02;9.13;;;23.00;89.90;;;;;;6258094;27;89099;-65
2022/05/18 00:37:31;;;;;;;10.43;9.43;;;23.10;89.90;;;;;;6238955;27;89326;-65
2022/05/18 00:40:33;;;;;;;9.48;8.57;;;23.10;89.90;;;;;;6251894;27;89969;-65
2022/05/18 00:43:43;;;;;;;11.35;10.25;;;23.10;89.90;;;;;;6258308;27;89031;-65
2022/05/18 00:46:45;;;;;;;10.55;9.55;;;23.10;90.00;;;;;;6257897;27;89359;-65
2022/05/18 00:49:53;;;;;;;11.10;10.00;;;23.10;90.10;;;;;;6258778;27;89084;-66
2022/05/18 00:53:01;;;;;;;10.75;9.75;;;23.00;90.00;;;;;;6258119;27;90787;-65
2022/05/18 00:56:08;;;;;;;10.32;9.32;;;23.10;90.10;;;;;;6257839;27;89152;-66
2022/05/18 00:59:16;;;;;;;9.80;8.90;;;23.10;90.00;;;;;;6257860;27;89072;-65
2022/05/18 01:02:20;;;;;;;10.20;9.20;;;23.10;90.00;;;;;;6248070;27;88624;-65
2022/05/18 01:05:30;;;;;;;10.27;9.38;;;23.10;89.80;;;;;;6257699;27;89048;-65
2022/05/18 01:08:39;;;;;;;10.30;9.30;;;23.00;89.70;;;;;;6257990;27;88926;-65
2022/05/18 01:11:41;;;;;;;9.68;8.77;;;23.10;89.80;;;;;;6257778;27;89300;-66
2022/05/18 01:14:50;;;;;;;9.60;8.70;;;23.10;89.80;;;;;;6253344;27;89122;-65
2022/05/18 01:17:56;;;;;;;9.63;8.73;;;23.10;89.70;;;;;;6256833;27;89410;-66
2022/05/18 01:20:58;;;;;;;9.98;9.07;;;23.10;89.70;;;;;;6257624;27;88813;-65
2022/05/18 01:24:05;;;;;;;9.48;8.57;;;23.10;89.80;;;;;;6258118;27;89082;-65
2022/05/18 01:27:09;;;;;;;10.40;9.40;;;23.10;89.80;;;;;;6252389;27;89100;-65
2022/05/18 01:30:13;;;;;;;9.93;9.00;;;23.10;89.80;;;;;;6257860;27;88725;-65
2022/05/18 01:33:16;;;;;;;10.15;9.25;;;23.00;89.60;;;;;;6258663;27;88667;-65
2022/05/18 01:36:18;;;;;;;9.90;9.00;;;23.10;90.00;;;;;;6257701;27;88979;-65
2022/05/18 01:39:23;;;;;;;9.60;8.70;;;23.10;90.00;;;;;;6256777;27;89055;-66
2022/05/18 01:42:32;;;;;;;10.65;9.65;;;23.00;90.00;;;;;;6245821;27;89953;-65
2022/05/18 01:45:34;;;;;;;9.65;8.75;;;23.10;90.00;;;;;;6246567;27;89445;-65
2022/05/18 01:48:38;;;;;;;9.82;8.93;;;23.00;90.00;;;;;;6246124;27;89077;-65
2022/05/18 01:51:44;;;;;;;9.52;8.65;;;23.00;89.80;;;;;;6244429;28;89195;-65
2022/05/18 01:54:48;;;;;;;9.75;8.85;;;23.10;89.70;;;;;;6257451;27;89077;-64
2022/05/18 01:57:51;;;;;;;9.73;8.82;;;23.00;89.60;;;;;;6257391;27;89056;-64
2022/05/18 02:00:54;;;;;;;9.48;8.68;;;23.10;89.60;;;;;;6256696;27;89126;-64
2022/05/18 02:03:56;;;;;;;9.52;8.63;;;23.10;89.60;;;;;;6243744;27;88327;-64
2022/05/18 02:06:58;;;;;;;9.57;8.68;;;23.00;89.60;;;;;;6255864;27;89081;-64
2022/05/18 02:10:00;;;;;;;9.05;8.25;;;23.00;89.60;;;;;;6256076;27;87988;-64
2022/05/18 02:13:03;;;;;;;9.25;8.45;;;23.10;89.60;;;;;;6256857;27;89934;-64
2022/05/18 02:16:06;;;;;;;9.15;8.25;;;23.00;89.60;;;;;;6256612;27;89070;-64
2022/05/18 02:19:08;;;;;;;9.20;8.40;;;23.10;89.60;;;;;;6256696;27;89483;-64
2022/05/18 02:22:10;;;;;;;9.05;8.25;;;23.10;89.60;;;;;;6256431;27;89304;-63
2022/05/18 02:25:12;;;;;;;9.13;8.32;;;23.00;89.60;;;;;;6256873;27;88949;-64
2022/05/18 02:28:15;;;;;;;8.90;8.10;;;23.00;89.80;;;;;;6257199;27;89388;-63
2022/05/18 02:31:17;;;;;;;9.10;8.30;;;23.10;90.00;;;;;;6256014;27;88941;-64
2022/05/18 02:34:19;;;;;;;9.05;8.25;;;23.00;90.00;;;;;;6255809;27;88600;-64
2022/05/18 02:37:21;;;;;;;8.48;7.68;;;23.00;90.00;;;;;;6256763;27;89160;-65
2022/05/18 02:40:24;;;;;;;8.75;8.00;;;23.00;89.80;;;;;;6256600;27;87193;-65
2022/05/18 02:43:28;;;;;;;8.75;7.95;;;23.00;89.50;;;;;;6255470;27;90047;-65
2022/05/18 02:46:30;;;;;;;9.02;8.23;;;23.00;89.40;;;;;;6256372;27;87105;-64
2022/05/18 02:49:32;;;;;;;8.70;7.90;;;23.00;89.40;;;;;;6256286;27;89214;-65
2022/05/18 02:52:35;;;;;;;8.27;7.57;;;23.00;89.40;;;;;;6256819;27;89471;-64
2022/05/18 02:58:57;;;;;;;9.05;8.15;;;23.00;89.40;;;;;;6252541;27;86947;-65
2022/05/18 03:02:00;;;;;;;8.27;7.47;;;23.00;89.30;;;;;;6248738;27;89026;-64
2022/05/18 03:05:02;;;;;;;8.75;7.95;;;23.00;89.40;;;;;;6256557;27;88378;-65
2022/05/18 03:08:05;;;;;;;8.43;7.63;;;23.00;89.30;;;;;;6255694;27;87934;-64
2022/05/18 03:11:08;;;;;;;8.13;7.38;;;23.00;89.40;;;;;;6255951;27;89394;-64
2022/05/18 03:14:11;;;;;;;9.02;8.18;;;23.00;89.50;;;;;;6255814;27;91003;-65
2022/05/18 03:17:14;;;;;;;8.27;7.57;;;23.00;89.80;;;;;;6254684;27;89254;-64
2022/05/18 03:23:34;;;;;;;8.85;8.05;;;23.00;89.90;;;;;;6254652;27;88628;-64
2022/05/18 03:26:36;;;;;;;8.18;7.38;;;23.00;89.70;;;;;;6255366;27;88994;-65
2022/05/18 03:29:39;;;;;;;8.25;7.45;;;23.00;89.60;;;;;;6256029;27;89100;-64
2022/05/18 03:32:41;;;;;;;7.35;6.65;;;23.00;89.40;;;;;;6255721;27;89093;-65
2022/05/18 03:35:43;;;;;;;8.02;7.32;;;23.00;89.30;;;;;;6255857;27;88291;-64
2022/05/18 03:38:47;;;;;;;7.70;7.00;;;23.00;89.30;;;;;;6255779;27;88985;-64
2022/05/18 03:41:49;;;;;;;7.63;6.93;;;23.00;89.30;;;;;;6257298;27;88971;-64
2022/05/18 03:44:52;;;;;;;7.38;6.78;;;23.00;89.20;;;;;;6259376;27;90018;-64
2022/05/18 03:47:55;;;;;;;7.72;7.03;;;23.00;89.20;;;;;;6257911;27;88995;-64
2022/05/18 03:50:59;;;;;;;7.75;7.05;;;23.00;89.30;;;;;;6259664;27;89024;-65
2022/05/18 03:54:02;;;;;;;6.88;6.28;;;23.00;89.20;;;;;;6260012;27;89479;-64
2022/05/18 03:57:07;;;;;;;7.50;6.80;;;23.00;89.20;;;;;;6259694;27;88204;-64
2022/05/18 04:00:12;;;;;;;7.47;6.78;;;23.00;89.30;;;;;;6259875;27;88012;-65
2022/05/18 04:03:16;;;;;;;7.60;6.90;;;23.00;89.40;;;;;;6259511;27;89411;-64
2022/05/18 04:06:18;;;;;;;7.25;6.63;;;23.00;89.60;;;;;;6260023;27;88252;-64
2022/05/18 04:09:19;;;;;;;7.00;6.40;;;23.00;89.60;;;;;;6259492;27;88961;-64
2022/05/18 04:12:21;;;;;;;7.15;6.55;;;23.00;89.70;;;;;;6250342;27;89425;-65
2022/05/18 04:15:27;;;;;;;6.78;6.18;;;23.00;89.60;;;;;;6257333;27;92715;-65
2022/05/18 04:18:29;;;;;;;7.28;6.57;;;23.00;89.30;;;;;;6257685;27;88976;-64
2022/05/18 04:21:31;;;;;;;7.32;6.63;;;23.00;89.20;;;;;;6255669;27;89323;-65
2022/05/18 04:24:33;;;;;;;6.75;6.15;;;23.00;89.20;;;;;;6255815;27;88684;-65
2022/05/18 04:27:35;;;;;;;6.70;6.10;;;23.00;89.20;;;;;;6257238;27;89357;-64
2022/05/18 04:30:39;;;;;;;6.82;6.22;;;23.00;89.10;;;;;;6257617;27;89133;-64
2022/05/18 04:33:41;;;;;;;6.97;6.38;;;23.00;89.20;;;;;;6258429;27;89070;-65
2022/05/18 04:36:43;;;;;;;6.90;6.30;;;23.00;89.20;;;;;;6259392;27;88377;-64
2022/05/18 04:39:45;;;;;;;6.85;6.15;;;23.00;89.20;;;;;;6249383;27;89053;-65
2022/05/18 04:42:48;;;;;;;7.00;6.40;;;23.00;89.20;;;;;;6256741;27;89068;-64
2022/05/18 04:45:51;;;;;;;7.18;6.57;;;23.10;89.20;;;;;;6256456;27;90327;-64
2022/05/18 04:48:53;;;;;;;7.32;6.63;;;23.00;89.20;;;;;;6258650;27;89251;-65
2022/05/18 04:51:55;;;;;;;6.72;6.13;;;23.00;89.20;;;;;;6258816;27;89345;-64
2022/05/18 04:54:57;;;;;;;6.25;5.65;;;23.10;89.70;;;;;;6270349;27;89246;-64
2022/05/18 04:58:01;;;;;;;6.93;6.32;;;23.10;89.10;;;;;;6258359;27;89340;-64
2022/05/18 05:01:07;;;;;;;6.28;5.68;;;23.10;89.10;;;;;;6245083;27;88751;-64
2022/05/18 05:04:10;;;;;;;6.97;6.38;;;23.10;88.90;;;;;;6259043;27;89107;-64
2022/05/18 05:07:12;;;;;;;6.53;5.93;;;23.10;88.80;;;;;;6258800;27;88144;-64
2022/05/18 05:10:14;;;;;;;6.80;6.20;;;23.10;88.80;;;;;;6246522;27;89117;-64
2022/05/18 05:13:16;;;;;;;6.78;6.07;;;23.10;88.80;;;;;;6253324;27;89057;-64
2022/05/18 05:16:19;;;;;;;6.25;5.75;;;23.10;88.70;;;;;;6249897;27;89913;-65
2022/05/18 05:19:21;;;;;;;5.93;5.43;;;23.10;88.70;;;;;;6258348;27;88213;-65
2022/05/18 05:22:23;;;;;;;6.18;5.68;;;23.20;88.70;;;;;;6257772;27;89112;-64
2022/05/18 05:25:25;;;;;;;6.20;5.70;;;23.20;88.60;;;;;;6257679;27;89604;-65
2022/05/18 05:28:27;;;;;;;6.43;5.82;;;23.20;88.60;;;;;;6257530;27;89046;-65
2022/05/18 05:31:31;;;;;;;6.47;5.88;;;23.20;88.60;;;;;;6257431;27;89003;-65
2022/05/18 05:34:34;;;;;;;6.10;5.60;;;23.20;88.50;;;;;;6257743;27;89289;-64
2022/05/18 05:37:36;;;;;;;6.45;5.90;;;23.20;88.60;;;;;;6258199;27;88333;-64
2022/05/18 05:40:38;;;;;;;6.35;5.75;;;23.20;88.60;;;;;;6258083;27;89032;-65
2022/05/18 05:43:41;;;;;;;6.40;5.80;;;23.20;88.60;;;;;;6257822;27;89117;-65
2022/05/18 05:46:45;;;;;;;5.95;5.45;;;23.30;88.60;;;;;;6256153;27;90090;-65
2022/05/18 05:49:47;;;;;;;6.00;5.50;;;23.20;88.60;;;;;;6257310;27;88760;-65
2022/05/18 05:52:49;;;;;;;5.97;5.47;;;23.20;88.60;;;;;;6257501;27;87967;-65
2022/05/18 05:55:51;;;;;;;5.70;5.20;;;23.30;88.60;;;;;;6256874;27;89029;-65
2022/05/18 05:58:53;;;;;;;5.80;5.30;;;23.20;88.40;;;;;;6257958;27;87961;-65
2022/05/18 06:02:01;;;;;;;6.03;5.53;;;23.20;88.40;;;;;;6257716;27;88992;-64
2022/05/18 06:05:03;;;;;;;6.03;5.47;;;23.30;88.40;;;;;;6256648;27;89345;-64
2022/05/18 06:08:05;;;;;;;5.88;5.32;;;23.30;88.40;;;;;;6270503;27;88643;-65
2022/05/18 06:11:10;;;;;;;5.90;5.40;;;23.20;88.40;;;;;;6256945;27;89029;-65
2022/05/18 06:14:12;;;;;;;5.95;5.45;;;23.30;88.60;;;;;;6257490;27;89047;-65
2022/05/18 06:17:15;;;;;;;6.10;5.50;;;23.30;88.60;;;;;;6256290;27;89963;-64
2022/05/18 06:20:17;;;;;;;6.07;5.57;;;23.30;88.60;;;;;;6256793;27;87953;-65
2022/05/18 06:23:19;;;;;;;5.70;5.20;;;23.30;88.60;;;;;;6256721;27;89163;-65
2022/05/18 06:26:21;;;;;;;5.93;5.40;;;23.30;88.60;;;;;;6256410;27;89567;-65
2022/05/18 06:29:23;;;;;;;5.78;5.28;;;23.30;88.70;;;;;;6257131;27;88982;-64
2022/05/18 06:32:26;;;;;;;5.82;5.30;;;23.30;88.70;;;;;;6256746;27;89001;-65
2022/05/18 06:35:28;;;;;;;5.63;5.10;;;23.30;88.70;;;;;;6256172;27;89104;-64
2022/05/18 06:38:31;;;;;;;5.82;5.30;;;23.30;88.70;;;;;;6256822;27;87246;-64
2022/05/18 06:41:34;;;;;;;5.88;5.38;;;23.30;88.60;;;;;;6256414;27;89520;-64
2022/05/18 06:44:36;;;;;;;5.70;5.20;;;23.30;88.60;;;;;;6256897;27;89030;-64
2022/05/18 06:47:39;;;;;;;5.28;4.78;;;23.30;88.50;;;;;;6254426;27;90314;-64
2022/05/18 06:50:41;;;;;;;5.60;5.10;;;23.30;88.40;;;;;;6256299;27;88960;-64
2022/05/18 06:53:43;;;;;;;5.88;5.32;;;23.30;88.50;;;;;;6256352;27;91015;-65
2022/05/18 06:56:46;;;;;;;5.75;5.25;;;23.30;88.50;;;;;;6256043;27;90486;-65
2022/05/18 06:59:48;;;;;;;5.60;5.10;;;23.30;88.60;;;;;;6256746;27;89629;-64
2022/05/18 07:02:51;;;;;;;5.80;5.30;;;23.30;88.60;;;;;;6256490;27;89135;-64
2022/05/18 07:05:53;;;;;;;5.70;5.13;;;23.30;88.70;;;;;;6255996;27;88005;-65
2022/05/18 07:08:57;;;;;;;5.53;5.07;;;23.30;88.90;;;;;;6256401;27;88262;-65
2022/05/18 07:11:59;;;;;;;5.63;5.13;;;23.30;88.90;;;;;;6256599;27;88903;-65
2022/05/18 07:15:01;;;;;;;5.22;4.82;;;23.30;88.90;;;;;;6256131;27;89109;-64
2022/05/18 07:18:04;;;;;;;5.60;5.10;;;23.30;88.90;;;;;;6259641;27;89893;-64
2022/05/18 07:21:07;;;;;;;5.28;4.88;;;23.30;88.90;;;;;;6260125;27;89263;-65
2022/05/18 07:24:10;;;;;;;5.75;5.25;;;23.30;89.00;;;;;;6260091;27;89010;-65
2022/05/18 07:27:12;;;;;;;5.32;4.85;;;23.30;88.90;;;;;;6260772;27;88979;-65
2022/05/18 07:30:15;;;;;;;5.50;5.00;;;23.30;88.90;;;;;;6261070;27;87960;-65
2022/05/18 07:33:21;;;;;;;5.68;5.18;;;23.30;88.80;;;;;;6251582;27;89028;-64
2022/05/18 07:36:23;;;;;;;5.32;4.82;;;23.30;88.80;;;;;;6250677;27;89056;-65
2022/05/18 07:39:28;;;;;;;5.57;5.07;;;23.40;88.80;;;;;;6249481;27;88158;-65
2022/05/18 07:42:30;;;;;;;5.28;4.78;;;23.40;88.80;;;;;;6256587;27;88930;-64
2022/05/18 07:45:33;;;;;;;5.13;4.72;;;23.30;88.80;;;;;;6258383;27;89073;-64
2022/05/18 07:48:37;;;;;;;5.43;4.93;;;23.30;88.70;;;;;;6248119;28;90054;-65
2022/05/18 07:51:39;;;;;;;5.43;4.93;;;23.40;88.90;;;;;;6246587;27;89075;-65
2022/05/18 07:54:44;;;;;;;5.22;4.72;;;23.40;88.90;;;;;;6259623;27;89029;-65
2022/05/18 07:57:46;;;;;;;5.07;4.68;;;23.30;89.10;;;;;;6259857;27;89478;-65
2022/05/18 08:00:49;;;;;;;5.15;4.75;;;23.30;89.10;;;;;;6260008;27;88998;-64
2022/05/18 08:03:53;;;;;;;4.95;4.55;;;23.30;89.10;;;;;;6259910;27;89047;-64
2022/05/18 08:06:55;;;;;;;5.07;4.50;;;23.30;89.10;;;;;;6259448;27;89221;-65
2022/05/18 08:16:36;;;;;;;4.80;4.40;;;23.30;89.40;;;;;;6259503;27;87018;-64
2022/05/18 08:19:39;;;;;;;4.93;4.53;;;23.30;89.20;;;;;;6258668;27;90124;-65
2022/05/18 08:22:41;;;;;;;5.20;4.70;;;23.30;89.10;;;;;;6259550;27;89333;-64
2022/05/18 08:25:46;;;;;;;4.82;4.43;;;23.40;89.10;;;;;;6259000;27;89070;-64
2022/05/18 08:28:48;;;;;;;4.88;4.47;;;23.30;88.90;;;;;;6258125;27;89323;-64
2022/05/18 08:31:50;;;;;;;4.50;4.10;;;23.40;89.00;;;;;;6247089;27;89281;-65
2022/05/18 08:34:54;;;;;;;4.93;4.53;;;23.30;88.90;;;;;;6259064;27;89023;-65
2022/05/18 08:37:56;;;;;;;4.82;4.43;;;23.30;88.90;;;;;;6258723;27;89098;-64
2022/05/18 08:41:02;;;;;;;4.20;3.80;;;23.30;89.10;;;;;;6259285;27;88330;-65
2022/05/18 08:44:08;;;;;;;4.40;4.00;;;23.40;89.10;;;;;;6245519;27;88196;-64
2022/05/18 08:47:13;;;;;;;5.07;4.60;;;23.30;89.10;;;;;;6258374;27;87932;-65
2022/05/18 08:50:20;;;;;;;4.45;4.05;;;23.30;89.20;;;;;;6258406;27;90367;-65
2022/05/18 08:53:38;;;;;;;4.75;4.30;;;23.30;89.10;;;;;;6258419;27;88955;-64
2022/05/18 08:56:43;;;;;;;4.47;4.07;;;23.30;89.10;;;;;;6247404;27;89002;-64
2022/05/18 08:59:47;;;;;;;4.55;4.15;;;23.30;89.20;;;;;;6259562;27;89094;-65
2022/05/18 09:02:59;;;;;;;4.72;4.32;;;23.30;89.20;;;;;;6258266;27;89039;-63
2022/05/18 09:06:07;;;;;;;4.72;4.32;;;23.30;89.20;;;;;;6248081;27;88619;-64
2022/05/18 09:12:36;;;;;;;4.28;3.88;;;23.30;89.10;;;;;;6228375;27;86959;-65
2022/05/18 09:15:54;;;;;;;4.50;4.10;;;23.30;89.00;;;;;;6258387;27;88919;-65
2022/05/18 09:19:04;;;;;;;4.35;3.95;;;23.30;89.90;;;;;;6257406;27;89114;-64
2022/05/18 09:22:22;;;;;;;3.90;3.60;;;23.30;89.00;;;;;;6245022;27;89838;-64
2022/05/18 09:25:34;;;;;;;4.38;3.97;;;23.30;89.00;;;;;;6246069;27;89122;-65
2022/05/18 09:28:53;;;;;;;4.10;3.80;;;23.30;89.00;;;;;;6246045;27;89019;-64
2022/05/18 09:32:13;;;;;;;4.50;4.10;;;23.30;89.10;;;;;;6246976;27;89375;-65
2022/05/18 09:35:39;;;;;;;4.40;4.00;;;23.30;89.10;;;;;;6257480;27;87949;-65
2022/05/18 09:38:50;;;;;;;4.65;4.20;;;23.30;89.10;;;;;;6257586;27;89111;-65
2022/05/18 09:41:59;;;;;;;4.20;3.80;;;23.30;89.10;;;;;;6257954;27;89038;-65
2022/05/18 09:45:07;;;;;;;3.90;3.60;;;23.30;89.10;;;;;;6257621;27;88396;-65
2022/05/18 09:48:15;;;;;;;4.40;4.00;;;23.30;89.10;;;;;;6257620;27;89799;-65
2022/05/18 09:51:17;;;;;;;4.07;3.67;;;23.30;89.00;;;;;;6257635;27;89140;-65
2022/05/18 09:54:20;;;;;;;4.10;3.72;;;23.30;89.00;;;;;;6257359;27;90218;-63
2022/05/18 09:57:28;;;;;;;3.90;3.60;;;23.30;88.90;;;;;;6257585;27;89432;-65
2022/05/18 10:00:32;;;;;;;4.18;3.78;;;23.30;88.90;;;;;;6257464;27;89120;-65
2022/05/18 10:07:30;;;;;;;3.63;3.33;;;23.30;88.60;;;;;;6256971;27;87293;-65
2022/05/18 10:10:38;;;;;;;3.70;3.40;;;23.30;88.60;;;;;;6256760;27;89066;-65
2022/05/18 10:13:44;;;;;;;3.80;3.50;;;23.30;88.50;;;;;;6257270;27;89109;-65
2022/05/18 10:16:49;;;;;;;3.67;3.38;;;23.30;88.50;;;;;;6257208;27;88308;-64
2022/05/18 10:19:54;;;;;;;3.95;3.58;;;23.30;88.40;;;;;;6257094;27;88984;-64
2022/05/18 10:22:58;;;;;;;3.63;3.33;;;23.30;88.40;;;;;;6256645;27;89622;-65
2022/05/18 10:26:03;;;;;;;4.22;3.83;;;23.30;88.40;;;;;;6256690;27;91484;-64
2022/05/18 10:29:07;;;;;;;3.65;3.35;;;23.30;88.40;;;;;;6256565;27;89384;-64
2022/05/18 10:32:12;;;;;;;3.95;3.60;;;23.30;88.40;;;;;;6242607;27;89022;-65
2022/05/18 10:35:32;;;;;;;3.60;3.30;;;23.30;88.40;;;;;;6256558;27;88843;-65
2022/05/18 10:38:36;;;;;;;4.00;3.50;;;23.30;88.40;;;;;;6256536;27;89088;-64
2022/05/18 10:41:42;;;;;;;4.03;3.55;;;23.30;88.30;;;;;;6256196;27;89195;-64
2022/05/18 10:44:45;;;;;;;3.33;3.03;;;23.30;88.30;;;;;;6243280;27;89379;-64
2022/05/18 10:47:50;;;;;;;3.85;3.55;;;23.40;88.40;;;;;;6256133;27;88873;-65
2022/05/18 10:51:01;;;;;;;3.75;3.45;;;23.30;88.30;;;;;;6255712;27;87985;-64
2022/05/18 10:54:15;;;;;;;3.67;3.38;;;23.30;88.20;;;;;;6255674;27;89059;-64
2022/05/18 10:57:21;;;;;;;3.80;3.50;;;23.30;88.10;;;;;;6255455;27;88940;-65
2022/05/18 11:00:27;;;;;;;3.55;3.25;;;23.40;88.10;;;;;;6256229;27;89137;-64
2022/05/18 11:03:36;;;;;;;3.13;2.83;;;23.40;88.10;;;;;;6256575;27;89070;-65
2022/05/18 11:06:40;;;;;;;3.33;3.03;;;23.30;87.90;;;;;;6256436;27;89190;-65
2022/05/18 11:09:43;;;;;;;3.47;3.17;;;23.30;87.70;;;;;;6256179;27;89412;-63
2022/05/18 11:12:51;;;;;;;3.63;3.30;;;23.30;87.70;;;;;;6256355;27;89117;-65
2022/05/18 11:16:04;;;;;;;3.47;3.17;;;23.30;87.70;;;;;;6256322;27;89127;-64
2022/05/18 11:19:13;;;;;;;3.45;3.15;;;23.30;87.80;;;;;;6245316;27;88324;-65
2022/05/18 11:22:27;;;;;;;3.30;3.10;;;23.30;87.80;;;;;;6268371;27;89119;-65
2022/05/18 11:25:39;;;;;;;3.35;3.05;;;23.30;87.80;;;;;;6244172;27;89053;-63
2022/05/18 11:28:53;;;;;;;3.30;3.00;;;23.30;87.90;;;;;;6243266;27;88892;-64
2022/05/18 11:32:18;;;;;;;3.55;3.25;;;23.30;87.80;;;;;;6244629;27;89066;-65
2022/05/18 11:35:47;;;;;;;3.65;3.35;;;23.30;87.70;;;;;;6252743;27;89099;-65
2022/05/18 11:39:08;;;;;;;3.20;3.00;;;23.30;87.70;;;;;;6255421;27;89058;-65
2022/05/18 11:42:21;;;;;;;3.28;3.00;;;23.30;87.60;;;;;;6255315;27;88202;-65
2022/05/18 11:45:31;;;;;;;3.28;2.97;;;23.30;87.60;;;;;;6255330;27;89344;-65
2022/05/18 11:48:44;;;;;;;3.00;2.80;;;23.40;87.40;;;;;;6243056;27;89154;-64
2022/05/18 11:52:07;;;;;;;3.53;3.22;;;23.40;87.40;;;;;;6244497;27;88315;-65
2022/05/18 11:55:29;;;;;;;3.33;3.03;;;23.30;87.20;;;;;;6245264;27;89059;-64
2022/05/18 11:58:52;;;;;;;3.25;2.95;;;23.30;87.20;;;;;;6255519;27;89183;-65
2022/05/18 12:02:05;;;;;;;3.30;2.95;;;23.30;87.10;;;;;;6254429;27;90085;-64
2022/05/18 12:05:36;;;;;;;3.15;2.85;;;23.30;87.10;;;;;;6259066;27;89486;-65
2022/05/18 12:09:03;;;;;;;3.20;3.00;;;23.30;87.00;;;;;;6259445;27;89032;-65
2022/05/18 12:12:12;;;;;;;3.10;2.90;;;23.30;87.10;;;;;;6259438;27;89067;-65
2022/05/18 12:15:21;;;;;;;2.90;2.70;;;23.30;87.10;;;;;;6259513;27;88960;-65
2022/05/18 12:18:33;;;;;;;3.08;2.70;;;23.30;87.10;;;;;;6259282;27;89072;-65
2022/05/18 12:21:41;;;;;;;3.20;2.90;;;23.30;87.10;;;;;;6258900;27;89123;-65
2022/05/18 12:24:46;;;;;;;3.00;2.70;;;23.30;87.20;;;;;;6259852;27;87307;-65
2022/05/18 12:27:51;;;;;;;3.20;2.90;;;23.30;87.20;;;;;;6259120;27;88243;-65
2022/05/18 12:30:53;;;;;;;3.22;2.92;;;23.30;87.10;;;;;;6258929;27;89191;-64
2022/05/18 12:34:16;;;;;;;3.03;2.72;;;23.30;87.10;;;;;;6257299;27;90025;-65
2022/05/18 12:37:33;;;;;;;3.92;2.60;;;23.30;87.10;;;;;;6258790;27;89173;-66
2022/05/18 12:40:51;;;;;;;3.20;2.90;;;23.30;87.00;;;;;;6258736;27;89064;-65
2022/05/18 12:44:05;;;;;;;3.20;2.90;;;23.30;87.00;;;;;;6257845;27;89042;-64
2022/05/18 12:47:20;;;;;;;2.92;2.72;;;23.30;87.00;;;;;;6256657;27;89136;-65
2022/05/18 12:50:36;;;;;;;2.80;2.60;;;23.30;87.00;;;;;;6258587;27;89344;-65
2022/05/18 12:53:53;;;;;;;3.17;2.88;;;23.40;87.10;;;;;;6259437;27;89231;-65
2022/05/18 12:57:45;;;;;;;3.33;2.80;;;23.30;87.00;;;;;;6258972;27;88340;-65
2022/05/18 13:00:56;;;;;;;2.90;2.70;;;23.40;87.10;;;;;;6211075;27;88050;-65
2022/05/18 13:04:00;;;;;;;2.97;2.78;;;23.40;87.10;;;;;;6258043;27;89182;-64
2022/05/18 13:07:21;;;;;;;3.00;2.80;;;23.30;87.10;;;;;;6243540;27;89985;-65
2022/05/18 13:10:28;;;;;;;2.75;2.55;;;23.40;87.20;;;;;;6258627;27;89090;-65
2022/05/18 13:13:35;;;;;;;3.05;2.75;;;23.40;88.20;;;;;;6251648;27;89352;-65
2022/05/18 13:17:01;;;;;;;2.92;2.72;;;23.30;87.20;;;;;;6253330;27;88732;-64
2022/05/18 13:20:15;;;;;;;3.25;2.70;;;23.40;87.30;;;;;;6258604;27;89035;-64
2022/05/18 13:23:35;;;;;;;2.90;2.60;;;23.40;87.30;;;;;;6258546;27;89067;-65
2022/05/18 13:26:43;;;;;;;2.85;2.65;;;23.40;87.30;;;;;;6258283;27;89380;-65
2022/05/18 13:29:49;;;;;;;2.67;2.47;;;23.30;87.20;;;;;;6258605;27;88539;-65
2022/05/18 13:32:51;;;;;;;3.00;2.70;;;23.30;87.20;;;;;;6257523;27;89087;-65
2022/05/18 13:35:53;;;;;;;2.85;2.60;;;23.40;87.20;;;;;;6257661;27;89172;-65
2022/05/18 13:38:56;;;;;;;2.65;2.45;;;23.30;87.20;;;;;;6257464;27;90990;-65
2022/05/18 13:41:58;;;;;;;3.08;2.78;;;23.40;87.20;;;;;;6257952;27;89051;-65
2022/05/18 13:45:04;;;;;;;3.00;2.80;;;23.30;87.20;;;;;;6257375;27;88949;-65
2022/05/18 13:48:11;;;;;;;2.65;2.45;;;23.30;87.20;;;;;;6255959;27;89056;-65
2022/05/18 13:51:17;;;;;;;3.00;2.67;;;23.30;87.20;;;;;;6256865;27;89053;-65
2022/05/18 13:54:24;;;;;;;2.80;2.55;;;23.30;87.10;;;;;;6257913;27;89067;-65
2022/05/18 13:57:33;;;;;;;3.60;2.65;;;23.40;87.10;;;;;;6257289;27;89092;-65
2022/05/18 14:00:40;;;;;;;2.75;2.55;;;23.30;87.10;;;;;;6258275;27;88479;-65
2022/05/18 14:03:44;;;;;;;2.92;2.70;;;23.40;87.20;;;;;;6257496;27;89123;-65
2022/05/18 14:06:48;;;;;;;2.40;2.20;;;23.30;87.10;;;;;;6257475;27;88071;-65
2022/05/18 14:09:52;;;;;;;2.60;2.40;;;23.40;87.10;;;;;;6256553;27;88788;-65
2022/05/18 14:12:58;;;;;;;2.70;2.50;;;23.40;87.10;;;;;;6256858;27;89113;-65
2022/05/18 14:16:00;;;;;;;2.70;2.50;;;23.40;87.10;;;;;;6257193;27;87977;-65
2022/05/18 14:19:06;;;;;;;2.67;2.47;;;23.40;87.10;;;;;;6257388;27;89010;-65
2022/05/18 14:22:08;;;;;;;2.63;2.42;;;23.40;87.00;;;;;;6243908;27;87979;-65
2022/05/18 14:25:15;;;;;;;2.60;2.40;;;23.40;86.90;;;;;;6246029;27;87983;-65
2022/05/18 14:28:25;;;;;;;2.90;2.70;;;23.30;86.80;;;;;;6254363;27;88936;-65
2022/05/18 14:31:31;;;;;;;3.10;2.80;;;23.40;86.90;;;;;;6257363;27;88273;-65
2022/05/18 14:34:38;;;;;;;2.75;2.55;;;23.30;86.70;;;;;;6256429;27;89175;-65
2022/05/18 14:37:46;;;;;;;2.70;2.50;;;23.40;86.80;;;;;;6256250;27;89183;-66
2022/05/18 14:40:52;;;;;;;2.72;2.53;;;23.30;86.70;;;;;;6256409;27;89919;-65
2022/05/18 14:43:56;;;;;;;2.60;2.40;;;23.40;86.80;;;;;;6256575;27;89459;-65
2022/05/18 14:47:01;;;;;;;2.53;2.33;;;23.30;86.70;;;;;;6256520;27;88014;-65
2022/05/18 14:50:19;;;;;;;3.80;2.33;;;23.40;87.70;;;;;;6252031;27;89179;-66
2022/05/18 14:53:29;;;;;;;2.97;2.72;;;23.40;87.80;;;;;;6239111;28;89038;-65
2022/05/18 14:56:43;;;;;;;2.60;2.40;;;23.40;87.00;;;;;;6252425;27;88742;-66
2022/05/18 14:59:47;;;;;;;3.08;2.78;;;23.40;86.90;;;;;;6251415;27;89374;-65
2022/05/18 15:02:52;;;;;;;2.90;2.70;;;23.30;87.00;;;;;;6252965;27;88296;-65
2022/05/18 15:05:56;;;;;;;3.17;2.30;;;23.40;87.10;;;;;;6251245;27;89109;-65
2022/05/18 15:09:03;;;;;;;3.30;2.30;;;23.30;87.20;;;;;;6251494;27;89142;-65
2022/05/18 15:12:13;;;;;;;2.78;2.42;;;23.40;87.40;;;;;;6251766;27;90014;-66
2022/05/18 15:15:24;;;;;;;2.70;2.50;;;23.40;87.60;;;;;;6251746;27;89791;-65
2022/05/18 15:18:41;;;;;;;2.78;2.55;;;23.40;87.70;;;;;;6251197;27;89105;-65
2022/05/18 15:21:43;;;;;;;2.72;2.53;;;23.40;87.80;;;;;;6243662;28;88309;-65
2022/05/18 15:24:45;;;;;;;2.45;2.22;;;23.40;88.10;;;;;;6248939;27;89031;-65
2022/05/18 15:27:48;;;;;;;2.60;2.40;;;23.40;88.30;;;;;;6245910;27;89408;-65
2022/05/18 15:30:55;;;;;;;4.38;2.22;;;23.40;88.20;;;;;;6251918;27;87935;-65
2022/05/18 15:34:00;;;;;;;2.92;2.30;;;23.40;88.10;;;;;;6252152;27;88546;-65
2022/05/18 15:37:02;;;;;;;4.15;2.20;;;23.40;88.10;;;;;;6244691;27;89133;-65
2022/05/18 15:40:05;;;;;;;2.88;2.17;;;23.40;88.10;;;;;;6255875;27;89082;-66
2022/05/18 15:43:08;;;;;;;2.47;2.22;;;23.40;88.20;;;;;;6255081;27;90218;-65
2022/05/18 15:46:16;;;;;;;3.15;2.53;;;23.40;88.30;;;;;;6255869;27;89092;-65
2022/05/18 15:49:23;;;;;;;2.50;2.30;;;23.40;89.30;;;;;;6255646;27;89035;-65
2022/05/18 15:52:25;;;;;;;2.70;2.50;;;23.40;88.40;;;;;;6255515;27;89051;-65
2022/05/18 15:55:29;;;;;;;3.05;2.30;;;23.40;88.50;;;;;;6250747;27;89051;-65
2022/05/18 15:58:33;;;;;;;2.55;2.25;;;23.40;88.70;;;;;;6254559;27;89243;-65
2022/05/18 16:01:35;;;;;;;2.80;2.50;;;23.40;88.90;;;;;;6259660;27;87950;-65
2022/05/18 16:04:37;;;;;;;3.55;2.25;;;23.40;88.80;;;;;;6260431;27;87185;-64
2022/05/18 16:07:44;;;;;;;2.63;2.42;;;23.40;88.90;;;;;;6259472;27;88935;-66
2022/05/18 16:10:46;;;;;;;2.25;2.00;;;23.40;88.90;;;;;;6259117;27;89102;-65
2022/05/18 16:13:49;;;;;;;2.40;2.20;;;23.40;88.90;;;;;;6272511;27;89974;-65
2022/05/18 16:16:51;;;;;;;2.67;2.25;;;23.40;88.90;;;;;;6259816;27;89696;-65
2022/05/18 16:19:54;;;;;;;2.55;2.30;;;23.40;88.70;;;;;;6259447;27;89032;-65
2022/05/18 16:22:56;;;;;;;2.45;2.25;;;23.50;88.70;;;;;;6259366;27;87563;-65
2022/05/18 16:25:59;;;;;;;2.30;2.10;;;23.40;88.60;;;;;;6259358;27;88274;-65